BEL5BV EBBR-LFPG
Flight info
| Callsign | BEL5BV |
|---|---|
| Flight time | 0h 37m |
| Altitude | 19000 |
| Route | CIV Y50 IDOKO/N0382F170 Y50 MATIX |
| Aircraft | A320/M-DE3FGHIJ1LORVWY/H |
Departure
| Time | 2026-05-08 16:53 |
|---|---|
| Airport | Brussels Airport (EBBR) |
Arrival
| Time | 2026-05-08 17:30 |
|---|---|
| Airport | Charles de Gaulle International Airport (LFPG) |
| Time | Latitude | Longitude | Altitude | Speed | Heading |
|---|---|---|---|---|---|
| 2026-05-08 16:25 | 50.90409 | 4.48594 | 121 ft | 0 kts | 155° |
| 2026-05-08 16:42 | 50.90410 | 4.48593 | 121 ft | 1 kts | 155° |
| 2026-05-08 16:42 | 50.90432 | 4.48577 | 116 ft | 4 kts | 152° |
| 2026-05-08 16:42 | 50.90455 | 4.48555 | 118 ft | 4 kts | 144° |
| 2026-05-08 16:42 | 50.90474 | 4.48528 | 119 ft | 4 kts | 118° |
| 2026-05-08 16:43 | 50.90479 | 4.48499 | 117 ft | 1 kts | 65° |
| 2026-05-08 16:43 | 50.90478 | 4.48498 | 117 ft | 0 kts | 65° |
| 2026-05-08 16:46 | 50.90480 | 4.48505 | 117 ft | 4 kts | 66° |
| 2026-05-08 16:46 | 50.90509 | 4.48605 | 121 ft | 13 kts | 65° |
| 2026-05-08 16:46 | 50.90546 | 4.48735 | 119 ft | 13 kts | 65° |
| 2026-05-08 16:47 | 50.90587 | 4.48877 | 119 ft | 15 kts | 65° |
| 2026-05-08 16:47 | 50.90631 | 4.49030 | 119 ft | 14 kts | 65° |
| 2026-05-08 16:47 | 50.90617 | 4.49154 | 122 ft | 13 kts | 151° |
| 2026-05-08 16:47 | 50.90548 | 4.49205 | 121 ft | 11 kts | 155° |
| 2026-05-08 16:48 | 50.90469 | 4.49262 | 121 ft | 14 kts | 155° |
| 2026-05-08 16:48 | 50.90384 | 4.49324 | 123 ft | 11 kts | 155° |
| 2026-05-08 16:48 | 50.90324 | 4.49387 | 125 ft | 11 kts | 137° |
| 2026-05-08 16:48 | 50.90247 | 4.49389 | 127 ft | 15 kts | 194° |
| 2026-05-08 16:49 | 50.90140 | 4.49346 | 128 ft | 16 kts | 194° |
| 2026-05-08 16:49 | 50.90031 | 4.49302 | 131 ft | 16 kts | 194° |
| 2026-05-08 16:49 | 50.89920 | 4.49257 | 136 ft | 17 kts | 195° |
| 2026-05-08 16:49 | 50.89816 | 4.49213 | 142 ft | 14 kts | 194° |
| 2026-05-08 16:50 | 50.89731 | 4.49179 | 147 ft | 12 kts | 194° |
| 2026-05-08 16:50 | 50.89654 | 4.49148 | 152 ft | 9 kts | 192° |
| 2026-05-08 16:50 | 50.89596 | 4.49182 | 155 ft | 10 kts | 148° |
| 2026-05-08 16:50 | 50.89532 | 4.49172 | 159 ft | 12 kts | 197° |
| 2026-05-08 16:51 | 50.89436 | 4.49134 | 163 ft | 14 kts | 194° |
| 2026-05-08 16:51 | 50.89352 | 4.49101 | 166 ft | 11 kts | 194° |
| 2026-05-08 16:51 | 50.89298 | 4.49079 | 168 ft | 7 kts | 194° |
| 2026-05-08 16:51 | 50.89226 | 4.49050 | 173 ft | 10 kts | 194° |
| 2026-05-08 16:52 | 50.89164 | 4.49031 | 176 ft | 10 kts | 178° |
| 2026-05-08 16:52 | 50.89148 | 4.49099 | 176 ft | 0 kts | 70° |
| 2026-05-08 16:52 | 50.89148 | 4.49100 | 176 ft | 3 kts | 70° |
| 2026-05-08 16:52 | 50.89246 | 4.49528 | 176 ft | 78 kts | 70° |
| 2026-05-08 16:53 | 50.89871 | 4.52283 | 378 ft | 164 kts | 72° |
| 2026-05-08 16:53 | 50.90282 | 4.53933 | 1094 ft | 157 kts | 66° |
| 2026-05-08 16:53 | 50.90760 | 4.55462 | 1811 ft | 155 kts | 63° |
| 2026-05-08 16:54 | 50.91291 | 4.57039 | 2266 ft | 173 kts | 63° |
| 2026-05-08 16:54 | 50.91892 | 4.58823 | 2577 ft | 194 kts | 63° |
| 2026-05-08 16:54 | 50.92561 | 4.60825 | 2889 ft | 214 kts | 63° |
| 2026-05-08 16:54 | 50.93291 | 4.63019 | 3305 ft | 233 kts | 63° |
| 2026-05-08 16:55 | 50.93925 | 4.65495 | 3775 ft | 252 kts | 79° |
| 2026-05-08 16:55 | 50.93896 | 4.68285 | 4538 ft | 259 kts | 105° |
| 2026-05-08 16:55 | 50.93034 | 4.70787 | 5379 ft | 264 kts | 134° |
| 2026-05-08 16:55 | 50.91474 | 4.72315 | 6199 ft | 270 kts | 164° |
| 2026-05-08 16:56 | 50.89603 | 4.72406 | 6990 ft | 274 kts | 194° |
| 2026-05-08 16:56 | 50.87936 | 4.70974 | 7790 ft | 277 kts | 225° |
| 2026-05-08 16:56 | 50.86848 | 4.68453 | 8635 ft | 279 kts | 241° |
| 2026-05-08 16:56 | 50.85925 | 4.65741 | 9497 ft | 281 kts | 241° |
| 2026-05-08 16:57 | 50.85002 | 4.62999 | 10276 ft | 284 kts | 241° |
| 2026-05-08 16:57 | 50.84040 | 4.60152 | 10594 ft | 305 kts | 241° |
| 2026-05-08 16:57 | 50.83001 | 4.57086 | 10779 ft | 328 kts | 241° |
| 2026-05-08 16:57 | 50.81884 | 4.53803 | 10961 ft | 349 kts | 241° |
| 2026-05-08 16:58 | 50.80717 | 4.50383 | 11481 ft | 357 kts | 241° |
| 2026-05-08 16:58 | 50.79530 | 4.46915 | 12124 ft | 361 kts | 241° |
| 2026-05-08 16:58 | 50.78326 | 4.43404 | 12794 ft | 365 kts | 241° |
| 2026-05-08 16:58 | 50.77112 | 4.39870 | 13466 ft | 368 kts | 241° |
| 2026-05-08 16:59 | 50.75878 | 4.36292 | 14053 ft | 373 kts | 241° |
| 2026-05-08 16:59 | 50.74632 | 4.32687 | 14647 ft | 376 kts | 241° |
| 2026-05-08 16:59 | 50.73371 | 4.29050 | 15251 ft | 378 kts | 241° |
| 2026-05-08 16:59 | 50.72105 | 4.25402 | 15856 ft | 381 kts | 241° |
| 2026-05-08 17:00 | 50.70828 | 4.21726 | 16439 ft | 384 kts | 241° |
| 2026-05-08 17:00 | 50.69540 | 4.18019 | 17032 ft | 386 kts | 241° |
| 2026-05-08 17:00 | 50.68243 | 4.14288 | 17625 ft | 389 kts | 241° |
| 2026-05-08 17:00 | 50.66935 | 4.10539 | 18223 ft | 392 kts | 241° |
| 2026-05-08 17:01 | 50.65616 | 4.06768 | 18751 ft | 394 kts | 241° |
| 2026-05-08 17:01 | 50.64286 | 4.02967 | 19002 ft | 396 kts | 241° |
| 2026-05-08 17:01 | 50.62947 | 3.99136 | 19076 ft | 407 kts | 241° |
| 2026-05-08 17:01 | 50.61553 | 3.95166 | 19078 ft | 421 kts | 240° |
| 2026-05-08 17:02 | 50.59803 | 3.91411 | 19076 ft | 429 kts | 227° |
| 2026-05-08 17:02 | 50.57543 | 3.88340 | 19073 ft | 431 kts | 214° |
| 2026-05-08 17:02 | 50.54888 | 3.86145 | 19073 ft | 433 kts | 201° |
| 2026-05-08 17:02 | 50.51969 | 3.84936 | 19069 ft | 435 kts | 189° |
| 2026-05-08 17:03 | 50.48945 | 3.84760 | 19070 ft | 437 kts | 176° |
| 2026-05-08 17:03 | 50.45925 | 3.85254 | 19069 ft | 437 kts | 175° |
| 2026-05-08 17:03 | 50.43879 | 3.85606 | 19071 ft | 437 kts | 174° |
| 2026-05-08 17:03 | 50.40857 | 3.86129 | 19070 ft | 437 kts | 174° |
| 2026-05-08 17:04 | 50.37874 | 3.86645 | 19068 ft | 437 kts | 175° |
| 2026-05-08 17:04 | 50.34851 | 3.87167 | 19065 ft | 437 kts | 175° |
| 2026-05-08 17:04 | 50.31826 | 3.87687 | 19068 ft | 437 kts | 175° |
| 2026-05-08 17:04 | 50.28803 | 3.88203 | 19068 ft | 437 kts | 175° |
| 2026-05-08 17:05 | 50.25779 | 3.88716 | 19063 ft | 437 kts | 175° |
| 2026-05-08 17:05 | 50.22755 | 3.89224 | 19064 ft | 437 kts | 175° |
| 2026-05-08 17:05 | 50.19729 | 3.89734 | 19065 ft | 437 kts | 175° |
| 2026-05-08 17:05 | 50.16708 | 3.90245 | 19065 ft | 437 kts | 175° |
| 2026-05-08 17:06 | 50.13683 | 3.90759 | 19075 ft | 437 kts | 175° |
| 2026-05-08 17:06 | 50.10655 | 3.91275 | 19073 ft | 437 kts | 175° |
| 2026-05-08 17:06 | 50.07628 | 3.91790 | 19074 ft | 437 kts | 174° |
| 2026-05-08 17:06 | 50.04606 | 3.92303 | 19074 ft | 437 kts | 174° |
| 2026-05-08 17:07 | 50.01580 | 3.92817 | 19072 ft | 437 kts | 174° |
| 2026-05-08 17:07 | 49.98559 | 3.93330 | 19070 ft | 437 kts | 175° |
| 2026-05-08 17:07 | 49.95536 | 3.93842 | 19072 ft | 437 kts | 175° |
| 2026-05-08 17:07 | 49.92513 | 3.94351 | 19074 ft | 437 kts | 175° |
| 2026-05-08 17:08 | 49.89489 | 3.94858 | 19071 ft | 437 kts | 174° |
| 2026-05-08 17:08 | 49.86469 | 3.95365 | 19071 ft | 437 kts | 174° |
| 2026-05-08 17:08 | 49.83444 | 3.95873 | 19070 ft | 437 kts | 174° |
| 2026-05-08 17:08 | 49.80426 | 3.96380 | 19067 ft | 437 kts | 174° |
| 2026-05-08 17:09 | 49.77403 | 3.96885 | 19069 ft | 437 kts | 174° |
| 2026-05-08 17:09 | 49.74384 | 3.97385 | 19070 ft | 437 kts | 174° |
| 2026-05-08 17:09 | 49.71362 | 3.97889 | 19064 ft | 437 kts | 174° |
| 2026-05-08 17:09 | 49.68339 | 3.98395 | 19063 ft | 437 kts | 174° |
| 2026-05-08 17:10 | 49.65320 | 3.98884 | 19058 ft | 436 kts | 176° |
| 2026-05-08 17:10 | 49.62302 | 3.98768 | 19050 ft | 435 kts | 188° |
| 2026-05-08 17:10 | 49.59369 | 3.97683 | 19047 ft | 433 kts | 200° |
| 2026-05-08 17:10 | 49.56662 | 3.95686 | 19048 ft | 432 kts | 212° |
| 2026-05-08 17:11 | 49.54291 | 3.92868 | 19038 ft | 431 kts | 224° |
| 2026-05-08 17:11 | 49.52356 | 3.89358 | 19036 ft | 430 kts | 236° |
| 2026-05-08 17:11 | 49.50740 | 3.85516 | 18904 ft | 422 kts | 237° |
| 2026-05-08 17:11 | 49.49172 | 3.81792 | 18680 ft | 407 kts | 237° |
| 2026-05-08 17:12 | 49.47804 | 3.78074 | 18540 ft | 393 kts | 245° |
| 2026-05-08 17:12 | 49.46845 | 3.74222 | 17833 ft | 381 kts | 254° |
| 2026-05-08 17:12 | 49.46179 | 3.70310 | 16916 ft | 374 kts | 255° |
| 2026-05-08 17:12 | 49.45551 | 3.66524 | 16450 ft | 358 kts | 255° |
| 2026-05-08 17:13 | 49.44936 | 3.62831 | 15974 ft | 356 kts | 255° |
| 2026-05-08 17:13 | 49.44314 | 3.59114 | 15801 ft | 363 kts | 255° |
| 2026-05-08 17:13 | 49.43677 | 3.55343 | 15611 ft | 366 kts | 255° |
| 2026-05-08 17:13 | 49.43032 | 3.51558 | 15396 ft | 365 kts | 255° |
| 2026-05-08 17:14 | 49.42389 | 3.47791 | 15189 ft | 365 kts | 255° |
| 2026-05-08 17:14 | 49.41600 | 3.44102 | 14971 ft | 363 kts | 246° |
| 2026-05-08 17:14 | 49.40516 | 3.40607 | 14607 ft | 362 kts | 244° |
| 2026-05-08 17:14 | 49.39398 | 3.37101 | 14285 ft | 375 kts | 244° |
| 2026-05-08 17:15 | 49.38310 | 3.33482 | 13972 ft | 369 kts | 246° |
| 2026-05-08 17:15 | 49.37336 | 3.29894 | 13700 ft | 360 kts | 248° |
| 2026-05-08 17:15 | 49.36426 | 3.26342 | 13441 ft | 356 kts | 248° |
| 2026-05-08 17:15 | 49.35535 | 3.22803 | 13165 ft | 354 kts | 248° |
| 2026-05-08 17:16 | 49.34646 | 3.19289 | 12901 ft | 353 kts | 248° |
| 2026-05-08 17:16 | 49.33747 | 3.15797 | 12642 ft | 352 kts | 248° |
| 2026-05-08 17:16 | 49.32840 | 3.12322 | 12377 ft | 350 kts | 248° |
| 2026-05-08 17:16 | 49.31927 | 3.08867 | 12126 ft | 349 kts | 247° |
| 2026-05-08 17:17 | 49.31014 | 3.05436 | 11871 ft | 347 kts | 247° |
| 2026-05-08 17:17 | 49.30100 | 3.02015 | 11629 ft | 346 kts | 247° |
| 2026-05-08 17:17 | 49.29190 | 2.98609 | 11372 ft | 345 kts | 247° |
| 2026-05-08 17:17 | 49.28281 | 2.95210 | 11123 ft | 344 kts | 247° |
| 2026-05-08 17:18 | 49.27375 | 2.91821 | 10904 ft | 342 kts | 247° |
| 2026-05-08 17:18 | 49.26480 | 2.88458 | 11019 ft | 342 kts | 247° |
| 2026-05-08 17:18 | 49.25579 | 2.85087 | 11048 ft | 341 kts | 247° |
| 2026-05-08 17:18 | 49.24680 | 2.81731 | 11057 ft | 340 kts | 247° |
| 2026-05-08 17:19 | 49.23782 | 2.78380 | 11056 ft | 340 kts | 247° |
| 2026-05-08 17:19 | 49.22886 | 2.75044 | 11052 ft | 333 kts | 247° |
| 2026-05-08 17:19 | 49.22028 | 2.71857 | 11050 ft | 315 kts | 247° |
| 2026-05-08 17:19 | 49.21213 | 2.68836 | 11050 ft | 299 kts | 247° |
| 2026-05-08 17:20 | 49.20439 | 2.65970 | 11051 ft | 287 kts | 247° |
| 2026-05-08 17:20 | 49.19679 | 2.63164 | 11059 ft | 285 kts | 247° |
| 2026-05-08 17:20 | 49.18921 | 2.60371 | 11052 ft | 285 kts | 247° |
| 2026-05-08 17:20 | 49.18272 | 2.57579 | 11051 ft | 270 kts | 256° |
| 2026-05-08 17:21 | 49.18035 | 2.54821 | 10885 ft | 259 kts | 268° |
| 2026-05-08 17:21 | 49.17988 | 2.52134 | 10644 ft | 254 kts | 267° |
| 2026-05-08 17:21 | 49.17937 | 2.49460 | 10377 ft | 250 kts | 267° |
| 2026-05-08 17:21 | 49.17882 | 2.46794 | 9978 ft | 252 kts | 267° |
| 2026-05-08 17:22 | 49.17827 | 2.44171 | 9727 ft | 240 kts | 267° |
| 2026-05-08 17:22 | 49.17772 | 2.41666 | 9327 ft | 234 kts | 266° |
| 2026-05-08 17:22 | 49.17532 | 2.39236 | 8832 ft | 230 kts | 252° |
| 2026-05-08 17:22 | 49.16899 | 2.36996 | 8293 ft | 229 kts | 238° |
| 2026-05-08 17:23 | 49.15924 | 2.35067 | 7804 ft | 232 kts | 224° |
| 2026-05-08 17:23 | 49.14664 | 2.33474 | 7342 ft | 238 kts | 217° |
| 2026-05-08 17:23 | 49.13379 | 2.31958 | 7083 ft | 229 kts | 217° |
| 2026-05-08 17:23 | 49.12121 | 2.30471 | 6630 ft | 229 kts | 217° |
| 2026-05-08 17:24 | 49.10867 | 2.28981 | 6125 ft | 229 kts | 217° |
| 2026-05-08 17:24 | 49.09611 | 2.27490 | 5648 ft | 228 kts | 216° |
| 2026-05-08 17:24 | 49.08353 | 2.25998 | 5318 ft | 232 kts | 216° |
| 2026-05-08 17:24 | 49.07075 | 2.24484 | 4813 ft | 233 kts | 217° |
| 2026-05-08 17:25 | 49.05793 | 2.22968 | 4298 ft | 233 kts | 217° |
| 2026-05-08 17:25 | 49.04501 | 2.21484 | 3787 ft | 232 kts | 210° |
| 2026-05-08 17:25 | 49.02980 | 2.20877 | 3287 ft | 227 kts | 173° |
| 2026-05-08 17:25 | 49.01573 | 2.21725 | 3013 ft | 214 kts | 137° |
| 2026-05-08 17:26 | 49.00759 | 2.23486 | 2996 ft | 201 kts | 107° |
| 2026-05-08 17:26 | 49.00621 | 2.25555 | 3009 ft | 195 kts | 84° |
| 2026-05-08 17:26 | 49.00740 | 2.27608 | 3040 ft | 194 kts | 84° |
| 2026-05-08 17:26 | 49.00857 | 2.29617 | 2999 ft | 187 kts | 84° |
| 2026-05-08 17:27 | 49.00968 | 2.31575 | 2895 ft | 185 kts | 84° |
| 2026-05-08 17:27 | 49.01077 | 2.33514 | 2695 ft | 183 kts | 84° |
| 2026-05-08 17:27 | 49.01184 | 2.35419 | 2464 ft | 178 kts | 84° |
| 2026-05-08 17:27 | 49.01286 | 2.37258 | 2232 ft | 169 kts | 84° |
| 2026-05-08 17:28 | 49.01382 | 2.38987 | 2039 ft | 162 kts | 84° |
| 2026-05-08 17:28 | 49.01477 | 2.40682 | 1810 ft | 160 kts | 84° |
| 2026-05-08 17:28 | 49.01566 | 2.42298 | 1598 ft | 147 kts | 83° |
| 2026-05-08 17:28 | 49.01649 | 2.43812 | 1403 ft | 141 kts | 84° |
| 2026-05-08 17:29 | 49.01730 | 2.45282 | 1217 ft | 139 kts | 84° |
| 2026-05-08 17:29 | 49.01810 | 2.46744 | 1027 ft | 138 kts | 83° |
| 2026-05-08 17:29 | 49.01891 | 2.48204 | 831 ft | 139 kts | 83° |
| 2026-05-08 17:29 | 49.01972 | 2.49681 | 625 ft | 139 kts | 82° |
| 2026-05-08 17:30 | 49.02053 | 2.51137 | 409 ft | 137 kts | 83° |
| 2026-05-08 17:30 | 49.02133 | 2.52491 | 356 ft | 111 kts | 86° |
| 2026-05-08 17:30 | 49.02176 | 2.53400 | 358 ft | 62 kts | 85° |
| 2026-05-08 17:30 | 49.02197 | 2.53828 | 353 ft | 29 kts | 88° |
| 2026-05-08 17:31 | 49.02170 | 2.54124 | 357 ft | 28 kts | 105° |
| 2026-05-08 17:31 | 49.02120 | 2.54403 | 354 ft | 27 kts | 105° |
| 2026-05-08 17:31 | 49.02075 | 2.54651 | 360 ft | 14 kts | 105° |
| 2026-05-08 17:31 | 49.02046 | 2.54802 | 361 ft | 15 kts | 111° |
| 2026-05-08 17:32 | 49.01998 | 2.54848 | 356 ft | 5 kts | 228° |
| 2026-05-08 17:32 | 49.02009 | 2.54771 | 358 ft | 15 kts | 284° |
| 2026-05-08 17:32 | 49.02016 | 2.54610 | 362 ft | 15 kts | 265° |
| 2026-05-08 17:32 | 49.02009 | 2.54465 | 354 ft | 13 kts | 265° |
| 2026-05-08 17:33 | 49.02001 | 2.54337 | 357 ft | 11 kts | 265° |
| 2026-05-08 17:33 | 49.01990 | 2.54219 | 357 ft | 11 kts | 251° |
| 2026-05-08 17:33 | 49.01928 | 2.54135 | 354 ft | 13 kts | 196° |
| 2026-05-08 17:33 | 49.01847 | 2.54132 | 357 ft | 10 kts | 185° |
| 2026-05-08 17:34 | 49.01807 | 2.54063 | 356 ft | 11 kts | 257° |
| 2026-05-08 17:34 | 49.01775 | 2.53906 | 356 ft | 16 kts | 243° |
| 2026-05-08 17:34 | 49.01711 | 2.53777 | 358 ft | 14 kts | 224° |
| 2026-05-08 17:34 | 49.01636 | 2.53687 | 357 ft | 13 kts | 212° |
| 2026-05-08 17:35 | 49.01550 | 2.53634 | 354 ft | 13 kts | 198° |
| 2026-05-08 17:35 | 49.01465 | 2.53608 | 358 ft | 13 kts | 184° |
| 2026-05-08 17:35 | 49.01368 | 2.53623 | 361 ft | 7 kts | 162° |
| 2026-05-08 17:35 | 49.01368 | 2.53685 | 354 ft | 7 kts | 56° |
| 2026-05-08 17:36 | 49.01390 | 2.53773 | 358 ft | 10 kts | 74° |
| 2026-05-08 17:36 | 49.02100 | 2.51990 | 353 ft | 0 kts | 83° |